Time;durP1;ratioP1;P1;durP2;ratioP2;P2;SDS_P1;SDS_P2;PMS_P1;PMS_P2;Temp;Humidity;BMP_temperature;BMP_pressure;BME280_temperature;BME280_humidity;BME280_pressure;Samples;Min_cycle;Max_cycle;Signal;HPM_P1;HPM_P2
2024/03/20 00:00:15;;;;;;;18.25;10.55;;;8.90;99.90;;;;;;4968820;28;20525;-76
2024/03/20 00:02:41;;;;;;;14.55;10.15;;;8.90;98.10;;;;;;4961962;28;20450;-76
2024/03/20 00:05:10;;;;;;;17.88;10.60;;;8.90;98.40;;;;;;4952507;28;20122;-76
2024/03/20 00:07:36;;;;;;;15.38;10.30;;;8.90;97.90;;;;;;4971628;28;20034;-76
2024/03/20 00:10:01;;;;;;;18.25;11.23;;;9.00;98.10;;;;;;4970725;28;20187;-76
2024/03/20 00:12:27;;;;;;;15.88;10.30;;;9.00;99.30;;;;;;4966091;28;20298;-76
2024/03/20 00:14:53;;;;;;;15.60;10.27;;;9.00;99.80;;;;;;4971839;28;20529;-75
2024/03/20 00:17:18;;;;;;;17.38;11.48;;;9.00;99.20;;;;;;4977844;28;20042;-76
2024/03/20 00:19:44;;;;;;;17.98;11.20;;;8.90;99.90;;;;;;4976663;28;20247;-76
2024/03/20 00:22:15;;;;;;;17.13;11.35;;;9.00;99.90;;;;;;4973445;28;20027;-76
2024/03/20 00:24:40;;;;;;;16.67;10.32;;;8.90;99.90;;;;;;4968633;28;20047;-76
2024/03/20 00:27:09;;;;;;;16.33;10.93;;;8.90;99.90;;;;;;4973395;28;20084;-76
2024/03/20 00:29:35;;;;;;;16.60;11.27;;;8.90;99.90;;;;;;4972874;28;20035;-76
2024/03/20 00:32:01;;;;;;;13.52;9.63;;;8.90;99.90;;;;;;4962730;28;20063;-76
2024/03/20 00:34:27;;;;;;;17.70;10.82;;;8.90;99.90;;;;;;4984025;28;20066;-76
2024/03/20 00:36:52;;;;;;;14.98;10.40;;;8.90;99.90;;;;;;4973921;28;20034;-76
2024/03/20 00:39:18;;;;;;;19.88;11.70;;;8.90;99.90;;;;;;4973808;28;20029;-76
2024/03/20 00:41:47;;;;;;;15.68;10.85;;;8.90;99.90;;;;;;4973643;28;20034;-76
2024/03/20 00:44:13;;;;;;;16.30;11.32;;;8.80;99.90;;;;;;4968156;28;20081;-76
2024/03/20 00:46:38;;;;;;;21.77;12.45;;;8.80;99.90;;;;;;4963881;28;20497;-77
2024/03/20 00:49:04;;;;;;;19.38;11.30;;;8.70;99.90;;;;;;4955241;28;20034;-76
2024/03/20 00:51:30;;;;;;;21.70;13.10;;;8.60;99.90;;;;;;4956205;28;20105;-76
2024/03/20 00:53:55;;;;;;;16.95;10.35;;;8.60;99.90;;;;;;4967158;28;20031;-76
2024/03/20 00:56:21;;;;;;;20.50;11.88;;;8.60;99.90;;;;;;4985019;28;20267;-76
2024/03/20 00:58:49;;;;;;;17.27;11.43;;;8.50;99.90;;;;;;4971154;28;20086;-76
2024/03/20 01:01:14;;;;;;;16.98;11.52;;;8.50;99.90;;;;;;4954302;28;20462;-76
2024/03/20 01:03:41;;;;;;;20.45;12.88;;;8.40;99.90;;;;;;4952445;28;20071;-76
2024/03/20 01:06:07;;;;;;;20.02;12.23;;;8.40;99.90;;;;;;4952767;28;20113;-76
2024/03/20 01:08:33;;;;;;;16.92;12.40;;;8.40;99.90;;;;;;4968961;28;20035;-76
2024/03/20 01:10:58;;;;;;;17.10;11.40;;;8.30;99.90;;;;;;4966665;28;20470;-76
2024/03/20 01:13:24;;;;;;;18.15;11.82;;;8.20;99.90;;;;;;4955240;28;20028;-76
2024/03/20 01:15:50;;;;;;;18.55;12.25;;;8.20;99.90;;;;;;4972286;28;20035;-76
2024/03/20 01:18:16;;;;;;;17.08;11.20;;;8.20;99.90;;;;;;4962872;28;20031;-76
2024/03/20 01:20:46;;;;;;;20.63;12.02;;;8.30;99.90;;;;;;4960861;28;20490;-76
2024/03/20 01:23:13;;;;;;;17.15;11.25;;;8.30;99.90;;;;;;4953983;28;20043;-76
2024/03/20 01:25:38;;;;;;;19.42;12.60;;;8.30;99.90;;;;;;4952804;28;20031;-76
2024/03/20 01:28:04;;;;;;;19.50;11.77;;;8.20;99.90;;;;;;4983457;28;20077;-76
2024/03/20 01:30:31;;;;;;;18.48;12.05;;;8.20;99.90;;;;;;4957996;28;20019;-76
2024/03/20 01:32:57;;;;;;;19.35;12.27;;;8.30;99.90;;;;;;4954648;28;20118;-76
2024/03/20 01:35:23;;;;;;;23.17;13.27;;;8.30;99.90;;;;;;4969260;28;20046;-76
2024/03/20 01:37:52;;;;;;;18.23;11.38;;;8.40;99.90;;;;;;4968385;28;20032;-76
2024/03/20 01:40:18;;;;;;;19.95;11.98;;;8.40;99.90;;;;;;4953567;28;20027;-76
2024/03/20 01:42:44;;;;;;;17.48;11.82;;;8.40;99.90;;;;;;4953200;28;20098;-76
2024/03/20 01:45:17;;;;;;;19.58;11.48;;;8.40;99.90;;;;;;4959166;28;20039;-76
2024/03/20 01:47:45;;;;;;;17.00;12.18;;;8.40;99.90;;;;;;4957519;28;20474;-76
2024/03/20 01:50:11;;;;;;;20.55;12.48;;;8.50;99.90;;;;;;4963678;28;20045;-76
2024/03/20 01:52:49;;;;;;;18.83;12.05;;;8.50;99.90;;;;;;4986261;28;20127;-76
2024/03/20 01:55:15;;;;;;;21.08;13.75;;;8.50;99.90;;;;;;4971858;28;20062;-76
2024/03/20 01:57:41;;;;;;;21.50;13.00;;;8.50;99.90;;;;;;4970850;28;20054;-76
2024/03/20 02:00:08;;;;;;;21.40;12.30;;;8.50;99.90;;;;;;4953123;28;20470;-76
2024/03/20 02:02:33;;;;;;;20.88;12.93;;;8.50;99.90;;;;;;4953717;28;20042;-76
2024/03/20 02:04:59;;;;;;;16.90;11.98;;;8.40;99.90;;;;;;4951666;28;20495;-76
2024/03/20 02:07:24;;;;;;;20.55;11.65;;;8.40;99.90;;;;;;4979844;28;20039;-76
2024/03/20 02:09:50;;;;;;;20.65;13.23;;;8.50;99.90;;;;;;4953643;28;20035;-76
2024/03/20 02:12:16;;;;;;;21.45;12.93;;;8.50;99.90;;;;;;4962927;28;20375;-77
2024/03/20 02:14:42;;;;;;;18.48;11.48;;;8.50;99.90;;;;;;4953494;28;20039;-76
2024/03/20 02:17:08;;;;;;;16.40;11.02;;;8.50;99.90;;;;;;4962880;28;20073;-76
2024/03/20 02:19:33;;;;;;;19.30;11.45;;;8.50;99.90;;;;;;4967906;28;20458;-76
2024/03/20 02:21:59;;;;;;;17.35;11.43;;;8.50;99.90;;;;;;4968121;28;20047;-77
2024/03/20 02:24:25;;;;;;;22.10;11.43;;;8.50;99.90;;;;;;4952692;29;20035;-76
2024/03/20 02:26:51;;;;;;;16.08;10.65;;;8.50;99.90;;;;;;4960940;28;20362;-76
2024/03/20 02:29:17;;;;;;;17.25;12.18;;;8.50;99.90;;;;;;4968573;28;20041;-76
2024/03/20 02:31:42;;;;;;;19.77;11.35;;;8.40;99.90;;;;;;4954154;28;20474;-76
2024/03/20 02:34:08;;;;;;;16.83;10.98;;;8.40;99.90;;;;;;4952890;28;20027;-76
2024/03/20 02:36:34;;;;;;;18.10;11.32;;;8.40;99.90;;;;;;4957861;28;20113;-76
2024/03/20 02:38:59;;;;;;;16.45;10.57;;;8.40;99.90;;;;;;4969817;28;20915;-76
2024/03/20 02:41:26;;;;;;;24.40;13.27;;;8.50;99.90;;;;;;4971534;28;20018;-77
2024/03/20 02:43:53;;;;;;;21.02;12.48;;;8.50;99.90;;;;;;4971266;28;20222;-76
2024/03/20 02:46:19;;;;;;;20.02;13.05;;;8.50;99.90;;;;;;4970928;28;20476;-76
2024/03/20 02:48:45;;;;;;;20.90;12.63;;;8.50;99.90;;;;;;4982183;28;20134;-76
2024/03/20 02:51:11;;;;;;;25.48;12.90;;;8.50;99.90;;;;;;4950914;29;20510;-76
2024/03/20 02:53:36;;;;;;;21.80;13.13;;;8.60;99.90;;;;;;4952512;28;20054;-76
2024/03/20 02:56:02;;;;;;;23.95;14.45;;;8.60;99.90;;;;;;4967104;28;20027;-77
2024/03/20 02:58:28;;;;;;;23.92;13.10;;;8.70;99.90;;;;;;4957846;28;20023;-76
2024/03/20 03:00:53;;;;;;;25.70;12.85;;;8.70;99.90;;;;;;4986254;28;20490;-76
2024/03/20 03:03:19;;;;;;;18.67;12.93;;;8.70;99.90;;;;;;4951846;28;20130;-76
2024/03/20 03:05:45;;;;;;;22.45;13.50;;;8.80;99.90;;;;;;4950501;28;20206;-76
2024/03/20 03:08:21;;;;;;;22.08;13.07;;;8.70;99.90;;;;;;4953780;28;20040;-76
2024/03/20 03:10:46;;;;;;;22.52;13.13;;;8.70;99.90;;;;;;4956057;28;20031;-77
2024/03/20 03:13:12;;;;;;;24.48;12.77;;;8.70;99.90;;;;;;4971590;28;20512;-76
2024/03/20 03:15:37;;;;;;;21.23;13.63;;;8.70;99.90;;;;;;4982773;28;20019;-76
2024/03/20 03:18:03;;;;;;;19.80;12.75;;;8.70;99.90;;;;;;4952255;28;20115;-76
2024/03/20 03:20:32;;;;;;;20.77;13.55;;;8.80;99.90;;;;;;4950467;28;20166;-76
2024/03/20 03:23:02;;;;;;;21.98;13.57;;;8.70;99.90;;;;;;4951262;28;20129;-76
2024/03/20 03:25:27;;;;;;;23.27;13.80;;;8.80;99.90;;;;;;4959958;28;20050;-76
2024/03/20 03:27:56;;;;;;;21.33;13.45;;;8.80;99.90;;;;;;4966430;28;20113;-76
2024/03/20 03:30:22;;;;;;;21.40;12.63;;;8.80;99.90;;;;;;4955484;28;20057;-76
2024/03/20 03:32:50;;;;;;;20.58;12.95;;;8.80;99.90;;;;;;4953361;28;20022;-76
2024/03/20 03:35:17;;;;;;;19.27;12.35;;;8.80;99.90;;;;;;4970627;28;20125;-76
2024/03/20 03:37:47;;;;;;;21.98;13.18;;;8.70;99.90;;;;;;4966869;28;20049;-76
2024/03/20 03:40:13;;;;;;;24.25;14.10;;;8.80;99.90;;;;;;4958392;28;20042;-76
2024/03/20 03:42:39;;;;;;;19.95;12.57;;;8.70;99.90;;;;;;4951725;28;20342;-76
2024/03/20 03:45:05;;;;;;;21.27;12.13;;;8.70;99.90;;;;;;4952064;28;20027;-76
2024/03/20 03:47:32;;;;;;;19.60;12.80;;;8.60;99.90;;;;;;4965161;28;20029;-76
2024/03/20 03:49:58;;;;;;;17.75;11.82;;;8.50;99.90;;;;;;4966354;28;20461;-76
2024/03/20 03:52:23;;;;;;;18.67;12.30;;;8.50;99.90;;;;;;4966492;28;20039;-76
2024/03/20 03:54:49;;;;;;;18.80;11.95;;;8.50;99.90;;;;;;4950053;28;20027;-76
2024/03/20 03:57:14;;;;;;;19.67;11.65;;;8.40;99.90;;;;;;4985877;28;20042;-76
2024/03/20 03:59:40;;;;;;;18.30;11.85;;;8.30;99.90;;;;;;4975208;28;20023;-76
2024/03/20 04:02:06;;;;;;;22.77;13.93;;;8.20;99.90;;;;;;5000538;28;20090;-76
2024/03/20 04:04:32;;;;;;;22.40;12.75;;;8.10;99.90;;;;;;4992286;28;20402;-76
2024/03/20 04:06:58;;;;;;;20.70;12.55;;;8.00;99.90;;;;;;4977548;28;20401;-75
2024/03/20 04:09:25;;;;;;;25.58;12.80;;;8.00;99.90;;;;;;4985561;28;20027;-76
2024/03/20 04:11:51;;;;;;;20.63;12.95;;;7.90;99.90;;;;;;4968935;28;20035;-76
2024/03/20 04:14:16;;;;;;;18.90;12.27;;;7.80;99.90;;;;;;4970317;28;20037;-76
2024/03/20 04:16:43;;;;;;;20.30;12.73;;;7.70;99.90;;;;;;4965130;28;20059;-76
2024/03/20 04:19:12;;;;;;;22.73;13.38;;;7.70;99.90;;;;;;4967823;28;20478;-76
2024/03/20 04:21:37;;;;;;;23.20;12.52;;;7.70;99.90;;;;;;4966350;28;20034;-75
2024/03/20 04:24:03;;;;;;;19.50;12.20;;;7.60;99.90;;;;;;4950691;28;20617;-76
2024/03/20 04:26:29;;;;;;;18.88;11.73;;;7.50;99.90;;;;;;4966035;28;20035;-76
2024/03/20 04:28:55;;;;;;;25.17;14.13;;;7.50;99.90;;;;;;4966050;28;20571;-76
2024/03/20 04:31:21;;;;;;;24.45;14.05;;;7.40;99.90;;;;;;4966295;28;20062;-76
2024/03/20 04:33:47;;;;;;;22.42;13.23;;;7.30;99.90;;;;;;4949115;28;20058;-76
2024/03/20 04:36:12;;;;;;;25.63;14.48;;;7.30;99.90;;;;;;4951478;29;20526;-76
2024/03/20 04:38:39;;;;;;;20.98;13.82;;;7.40;99.90;;;;;;4951140;29;20034;-76
2024/03/20 04:41:05;;;;;;;21.13;12.85;;;7.30;99.90;;;;;;4949773;29;20131;-76
2024/03/20 04:43:31;;;;;;;23.08;13.98;;;7.20;99.90;;;;;;4951064;29;20107;-76
2024/03/20 04:46:00;;;;;;;27.25;15.23;;;7.20;99.90;;;;;;4961158;28;20038;-76
2024/03/20 04:48:29;;;;;;;29.15;15.55;;;7.20;99.90;;;;;;4969922;28;20027;-76
2024/03/20 04:51:07;;;;;;;24.75;14.68;;;7.10;99.90;;;;;;4970338;28;20022;-76
2024/03/20 04:53:35;;;;;;;24.40;14.70;;;7.10;99.90;;;;;;4968561;28;20034;-76
2024/03/20 04:56:04;;;;;;;24.80;14.38;;;7.00;99.90;;;;;;4963908;28;20039;-76
2024/03/20 04:58:32;;;;;;;22.17;13.73;;;7.00;99.90;;;;;;4953051;28;20054;-76
2024/03/20 05:00:58;;;;;;;24.65;14.88;;;6.90;99.90;;;;;;4950333;28;20037;-76
2024/03/20 05:03:27;;;;;;;22.50;14.27;;;7.00;99.90;;;;;;4969129;28;20113;-76
2024/03/20 05:05:53;;;;;;;25.15;14.10;;;6.90;99.90;;;;;;4969160;28;20094;-76
2024/03/20 05:08:23;;;;;;;27.70;15.55;;;6.80;99.90;;;;;;4969064;28;20035;-76
2024/03/20 05:10:48;;;;;;;22.87;13.73;;;6.90;99.90;;;;;;4969137;28;20054;-76
2024/03/20 05:13:15;;;;;;;21.58;14.15;;;6.80;99.90;;;;;;4968473;28;20502;-75
2024/03/20 05:15:44;;;;;;;21.70;13.63;;;6.80;99.90;;;;;;4977861;28;20057;-77
2024/03/20 05:18:12;;;;;;;26.70;14.40;;;6.70;99.90;;;;;;4955053;28;20031;-77
2024/03/20 05:20:38;;;;;;;24.95;14.77;;;6.80;99.90;;;;;;4952979;28;20030;-77
2024/03/20 05:23:04;;;;;;;21.73;13.40;;;6.80;99.90;;;;;;4953339;28;20023;-77
2024/03/20 05:25:35;;;;;;;26.27;15.07;;;6.70;99.90;;;;;;4972991;28;20477;-77
2024/03/20 05:28:04;;;;;;;26.95;14.52;;;6.70;99.90;;;;;;4971377;28;20401;-77
2024/03/20 05:30:29;;;;;;;27.33;16.30;;;6.80;99.90;;;;;;4972597;28;20405;-77
2024/03/20 05:32:55;;;;;;;29.42;16.80;;;6.80;99.90;;;;;;4970854;28;20030;-77
2024/03/20 05:35:21;;;;;;;30.92;16.83;;;6.80;99.90;;;;;;4970354;28;20626;-77
2024/03/20 05:37:46;;;;;;;28.77;16.45;;;6.80;99.90;;;;;;4970853;28;20030;-77
2024/03/20 05:40:12;;;;;;;27.15;16.23;;;6.80;99.90;;;;;;4962143;28;20034;-77
2024/03/20 05:42:38;;;;;;;30.15;16.58;;;6.80;99.90;;;;;;4953181;28;20031;-77
2024/03/20 05:45:04;;;;;;;28.35;15.88;;;6.90;99.90;;;;;;4955857;28;20027;-77
2024/03/20 05:47:34;;;;;;;27.00;15.63;;;6.90;99.90;;;;;;4967996;28;20630;-77
2024/03/20 05:50:00;;;;;;;34.05;16.00;;;6.90;99.90;;;;;;4970553;28;20046;-76
2024/03/20 05:52:25;;;;;;;22.98;14.50;;;6.90;99.90;;;;;;4971985;28;20130;-77
2024/03/20 05:54:51;;;;;;;29.80;17.20;;;6.80;99.90;;;;;;4952517;28;20027;-77
2024/03/20 05:57:17;;;;;;;28.02;16.08;;;6.90;99.90;;;;;;4967423;28;20031;-76
2024/03/20 05:59:44;;;;;;;28.58;16.80;;;6.90;99.90;;;;;;4951009;29;20478;-76
2024/03/20 06:02:10;;;;;;;30.15;17.15;;;7.00;99.90;;;;;;4952630;29;20023;-77
2024/03/20 06:04:36;;;;;;;31.10;15.88;;;7.00;99.90;;;;;;4951953;29;20354;-77
2024/03/20 06:07:04;;;;;;;31.40;16.40;;;7.10;99.90;;;;;;4952370;29;20027;-77
2024/03/20 06:09:32;;;;;;;29.27;15.18;;;7.20;99.90;;;;;;4981268;28;20031;-77
2024/03/20 06:11:58;;;;;;;27.55;15.93;;;7.20;99.90;;;;;;4970326;28;20105;-76
2024/03/20 06:14:24;;;;;;;25.40;14.95;;;7.30;99.90;;;;;;4969368;28;20114;-77
2024/03/20 06:16:49;;;;;;;24.05;14.52;;;7.30;99.90;;;;;;4971090;28;20505;-77
2024/03/20 06:19:15;;;;;;;30.73;16.98;;;7.40;99.90;;;;;;4969371;28;20105;-77
2024/03/20 06:21:41;;;;;;;26.60;15.20;;;7.50;99.90;;;;;;4969539;28;20502;-77
2024/03/20 06:24:08;;;;;;;31.02;16.10;;;7.60;99.90;;;;;;4969124;28;20027;-76
2024/03/20 06:26:34;;;;;;;22.50;14.85;;;7.70;99.90;;;;;;4961288;28;20038;-77
2024/03/20 06:29:00;;;;;;;20.90;14.02;;;7.80;99.90;;;;;;4951706;28;20102;-77
2024/03/20 06:31:26;;;;;;;26.05;15.48;;;7.90;99.90;;;;;;4966432;28;20118;-76
2024/03/20 06:33:52;;;;;;;28.92;15.30;;;8.00;99.90;;;;;;4949527;29;20336;-77
2024/03/20 06:36:17;;;;;;;34.10;17.17;;;8.10;99.90;;;;;;4954540;28;20086;-76
2024/03/20 06:38:43;;;;;;;31.48;16.15;;;8.10;99.90;;;;;;4968899;28;20030;-77
2024/03/20 06:41:10;;;;;;;32.70;16.60;;;8.30;99.90;;;;;;4969602;28;20042;-77
2024/03/20 06:43:37;;;;;;;28.15;15.32;;;8.30;99.90;;;;;;4969195;28;20081;-78
2024/03/20 06:46:05;;;;;;;29.75;16.25;;;8.40;99.90;;;;;;4962301;28;20458;-77
2024/03/20 06:48:31;;;;;;;32.65;16.52;;;8.50;99.90;;;;;;4962056;28;20130;-77
2024/03/20 06:51:00;;;;;;;36.25;17.20;;;8.60;99.90;;;;;;4969004;28;20453;-77
2024/03/20 06:53:26;;;;;;;24.73;15.43;;;8.70;99.90;;;;;;4970302;28;20035;-77
2024/03/20 06:55:55;;;;;;;24.95;14.38;;;8.80;99.90;;;;;;4968194;28;20051;-77
2024/03/20 06:58:24;;;;;;;28.45;15.65;;;8.90;99.90;;;;;;4968146;28;20023;-77
2024/03/20 07:00:50;;;;;;;30.42;15.38;;;9.00;99.90;;;;;;4963575;28;20039;-77
2024/03/20 07:03:18;;;;;;;23.48;14.85;;;9.10;99.90;;;;;;4966635;28;20029;-77
2024/03/20 07:05:47;;;;;;;26.73;15.13;;;9.10;99.90;;;;;;4951606;29;20447;-77
2024/03/20 07:08:15;;;;;;;29.58;16.40;;;9.20;99.90;;;;;;4950537;29;20090;-78
2024/03/20 07:10:41;;;;;;;22.45;13.68;;;9.30;99.90;;;;;;4966826;28;20034;-77
2024/03/20 07:13:07;;;;;;;24.40;14.52;;;9.30;99.90;;;;;;4966198;28;20379;-77
2024/03/20 07:15:36;;;;;;;25.70;14.55;;;9.40;99.90;;;;;;4972848;28;20466;-78
2024/03/20 07:18:03;;;;;;;22.52;14.20;;;9.50;99.90;;;;;;4981354;28;20027;-77
2024/03/20 07:20:29;;;;;;;22.83;13.75;;;9.60;99.90;;;;;;4967655;28;20030;-78
2024/03/20 07:22:58;;;;;;;20.20;13.45;;;9.70;99.90;;;;;;4954852;28;20038;-77
2024/03/20 07:25:27;;;;;;;22.88;12.95;;;9.80;99.90;;;;;;4962585;28;20082;-77
2024/03/20 07:27:54;;;;;;;25.15;12.70;;;9.90;99.90;;;;;;4955261;28;20513;-77
2024/03/20 07:30:20;;;;;;;22.08;13.10;;;10.00;99.90;;;;;;4961901;28;20031;-77
2024/03/20 07:32:46;;;;;;;21.85;13.52;;;10.10;99.90;;;;;;4951613;28;20038;-77
2024/03/20 07:35:12;;;;;;;21.95;13.60;;;10.10;99.90;;;;;;4950225;28;20031;-78
2024/03/20 07:37:39;;;;;;;23.77;14.27;;;10.20;99.90;;;;;;4950738;28;20023;-78
2024/03/20 07:40:07;;;;;;;29.67;16.55;;;10.30;99.90;;;;;;4983991;28;20114;-77
2024/03/20 07:42:34;;;;;;;23.33;14.43;;;10.40;99.90;;;;;;4970684;28;20023;-77
2024/03/20 07:45:00;;;;;;;24.08;14.43;;;10.50;99.90;;;;;;4970027;28;20418;-77
2024/03/20 07:47:26;;;;;;;24.60;14.88;;;10.70;99.90;;;;;;4960622;28;20061;-77
2024/03/20 07:49:52;;;;;;;23.83;15.52;;;10.90;99.90;;;;;;4969735;28;20536;-77
2024/03/20 07:52:18;;;;;;;23.05;14.68;;;11.10;99.90;;;;;;4970389;28;20035;-77
2024/03/20 07:54:44;;;;;;;22.63;14.25;;;11.40;99.90;;;;;;4963694;28;20035;-78
2024/03/20 07:57:12;;;;;;;20.40;13.65;;;11.70;99.90;;;;;;4956034;28;20457;-77
2024/03/20 07:59:38;;;;;;;22.88;13.93;;;12.00;99.90;;;;;;4968578;28;20052;-77
2024/03/20 08:02:04;;;;;;;24.15;15.25;;;12.30;99.90;;;;;;4977520;28;20478;-78
2024/03/20 08:04:30;;;;;;;24.05;14.20;;;12.60;99.90;;;;;;4962476;28;20114;-78
2024/03/20 08:06:56;;;;;;;22.73;13.88;;;12.80;99.90;;;;;;4964294;28;20118;-78
2024/03/20 08:09:22;;;;;;;25.30;13.98;;;13.00;99.90;;;;;;4954310;28;20023;-79
2024/03/20 08:11:48;;;;;;;27.88;13.63;;;13.10;99.90;;;;;;4967873;28;20042;-79
2024/03/20 08:14:13;;;;;;;21.70;13.13;;;13.30;99.90;;;;;;4951382;29;20090;-77
2024/03/20 08:16:40;;;;;;;24.15;13.27;;;13.40;99.90;;;;;;4979717;28;20023;-78
2024/03/20 08:19:09;;;;;;;17.35;11.52;;;13.50;99.90;;;;;;4965761;28;20088;-78
2024/03/20 08:21:37;;;;;;;21.05;11.27;;;13.60;99.90;;;;;;4969104;28;20030;-77
2024/03/20 08:24:04;;;;;;;20.90;12.43;;;13.70;99.90;;;;;;4960967;28;20049;-78
2024/03/20 08:26:30;;;;;;;24.42;11.52;;;13.70;99.90;;;;;;4977435;28;20041;-76
2024/03/20 08:28:56;;;;;;;23.60;12.65;;;13.90;99.90;;;;;;4964630;28;20521;-77
2024/03/20 08:31:23;;;;;;;20.35;11.93;;;13.90;99.90;;;;;;4961474;28;20034;-77
2024/03/20 08:33:49;;;;;;;19.70;11.07;;;13.90;99.90;;;;;;4952723;29;20166;-78
2024/03/20 08:36:15;;;;;;;22.67;12.55;;;13.90;99.90;;;;;;4953872;28;20035;-78
2024/03/20 08:38:42;;;;;;;25.40;12.68;;;13.90;99.90;;;;;;4971976;28;20046;-77
2024/03/20 08:41:08;;;;;;;22.73;12.40;;;13.90;99.90;;;;;;4968868;28;20034;-76
2024/03/20 08:43:34;;;;;;;18.33;10.98;;;13.80;99.90;;;;;;4983797;28;20388;-76
2024/03/20 08:46:00;;;;;;;18.63;10.85;;;13.90;99.90;;;;;;4968115;28;20745;-77
2024/03/20 08:48:26;;;;;;;17.73;11.55;;;13.90;99.90;;;;;;4974160;28;20696;-77
2024/03/20 08:50:52;;;;;;;19.38;11.35;;;13.90;99.90;;;;;;4966624;28;20062;-77
2024/03/20 08:53:19;;;;;;;17.30;10.00;;;14.00;99.90;;;;;;4955806;28;20115;-77
2024/03/20 08:55:45;;;;;;;20.08;11.20;;;14.10;99.90;;;;;;4970461;28;20073;-78
2024/03/20 08:58:11;;;;;;;30.77;13.20;;;14.20;99.90;;;;;;4975485;28;20029;-77
2024/03/20 09:00:37;;;;;;;20.15;12.00;;;14.20;99.90;;;;;;4962474;28;20019;-78
2024/03/20 09:03:03;;;;;;;17.58;11.52;;;14.20;99.90;;;;;;4957413;28;20124;-80
2024/03/20 09:05:29;;;;;;;16.23;10.15;;;14.20;99.90;;;;;;4977828;28;20479;-79
2024/03/20 09:07:55;;;;;;;17.45;11.05;;;14.30;99.90;;;;;;4976602;28;20034;-79
2024/03/20 09:10:21;;;;;;;19.38;11.32;;;14.30;99.90;;;;;;4963556;29;20023;-80
2024/03/20 09:12:47;;;;;;;19.25;12.40;;;14.40;99.80;;;;;;4987394;28;20027;-79
2024/03/20 09:15:13;;;;;;;19.25;11.80;;;14.30;99.40;;;;;;4963725;28;20031;-79
2024/03/20 09:17:39;;;;;;;16.70;11.27;;;14.30;99.50;;;;;;4984712;28;20030;-80
2024/03/20 09:20:15;;;;;;;19.10;11.07;;;14.30;99.90;;;;;;4976173;28;20474;-80
2024/03/20 09:22:46;;;;;;;15.90;10.30;;;14.40;99.90;;;;;;4977660;28;20074;-79
2024/03/20 09:25:11;;;;;;;;;;;14.50;99.90;;;;;;4976266;28;20030;-80
2024/03/20 09:27:37;;;;;;;15.45;10.73;;;14.50;99.90;;;;;;4975077;28;19979;-80
2024/03/20 09:30:03;;;;;;;16.83;11.43;;;14.50;99.20;;;;;;4964566;28;20031;-80
2024/03/20 09:32:32;;;;;;;18.63;10.32;;;14.50;99.00;;;;;;4975197;28;20122;-80
2024/03/20 09:35:01;;;;;;;16.50;9.75;;;14.60;98.70;;;;;;4964515;28;20031;-80
2024/03/20 09:37:29;;;;;;;17.58;9.95;;;14.70;99.20;;;;;;4963583;28;20036;-80
2024/03/20 09:39:55;;;;;;;18.27;9.80;;;14.80;99.20;;;;;;4972125;28;20051;-80
2024/03/20 09:42:28;;;;;;;18.85;11.13;;;14.90;99.80;;;;;;4964264;28;20031;-79
2024/03/20 09:44:53;;;;;;;16.20;9.23;;;15.00;98.70;;;;;;4963972;28;20035;-80
2024/03/20 09:47:23;;;;;;;19.45;9.57;;;15.00;98.10;;;;;;4974556;28;20123;-80
2024/03/20 09:49:49;;;;;;;17.70;8.70;;;15.10;98.10;;;;;;4988884;28;20090;-80
2024/03/20 09:52:16;;;;;;;14.55;8.25;;;15.00;98.40;;;;;;4970130;28;20027;-80
2024/03/20 09:54:50;;;;;;;15.77;8.88;;;15.10;98.20;;;;;;4981326;28;20038;-79
2024/03/20 09:57:15;;;;;;;17.52;10.65;;;15.10;98.10;;;;;;4971988;28;20024;-79
2024/03/20 09:59:53;;;;;;;17.70;8.95;;;15.10;97.30;;;;;;4993127;28;20027;-81
2024/03/20 10:02:22;;;;;;;13.68;8.43;;;15.20;97.70;;;;;;4992791;28;20031;-78
2024/03/20 10:04:51;;;;;;;18.60;9.50;;;15.30;97.60;;;;;;4958189;28;20133;-79
2024/03/20 10:07:19;;;;;;;16.05;8.95;;;15.40;97.00;;;;;;4967319;28;20027;-79
2024/03/20 10:09:47;;;;;;;17.15;9.32;;;15.40;97.30;;;;;;4977334;28;20127;-79
2024/03/20 10:12:15;;;;;;;16.20;9.38;;;15.50;96.50;;;;;;4983229;28;20548;-80
2024/03/20 10:14:45;;;;;;;14.73;8.60;;;15.60;96.70;;;;;;4955332;29;20483;-79
2024/03/20 10:17:15;;;;;;;13.95;7.72;;;15.70;96.80;;;;;;4964918;28;20030;-80
2024/03/20 10:19:41;;;;;;;14.82;9.05;;;15.80;97.00;;;;;;4968404;28;20035;-79
2024/03/20 10:22:07;;;;;;;16.02;9.90;;;16.00;96.40;;;;;;4982252;28;20042;-81
2024/03/20 10:24:37;;;;;;;13.90;7.63;;;16.20;95.80;;;;;;4964616;28;20023;-80
2024/03/20 10:27:03;;;;;;;15.05;7.57;;;16.70;95.60;;;;;;4970081;28;20062;-80
2024/03/20 10:29:35;;;;;;;13.80;7.68;;;17.30;94.50;;;;;;4956924;28;20392;-80
2024/03/20 10:32:02;;;;;;;11.05;6.80;;;17.80;93.40;;;;;;4975890;28;20026;-80
2024/03/20 10:34:28;;;;;;;12.70;6.93;;;18.40;92.90;;;;;;4974724;28;20031;-80
2024/03/20 10:36:56;;;;;;;18.27;8.98;;;18.90;92.20;;;;;;4962392;28;20119;-81
2024/03/20 10:39:23;;;;;;;11.45;7.28;;;19.20;91.00;;;;;;4973799;28;20022;-82
2024/03/20 10:41:59;;;;;;;11.45;6.82;;;19.90;90.50;;;;;;4956129;28;20039;-81
2024/03/20 10:44:29;;;;;;;9.55;6.20;;;20.50;90.20;;;;;;4987360;28;20417;-81
2024/03/20 10:46:59;;;;;;;10.68;6.20;;;20.70;88.30;;;;;;4962243;28;20041;-82
2024/03/20 10:49:27;;;;;;;11.23;6.00;;;21.50;86.40;;;;;;4971702;28;20027;-81
2024/03/20 10:51:54;;;;;;;9.25;6.10;;;22.20;83.30;;;;;;4970720;28;20029;-81
2024/03/20 10:54:21;;;;;;;10.02;6.10;;;23.10;79.30;;;;;;4980548;28;20041;-79
2024/03/20 10:56:49;;;;;;;15.07;7.25;;;23.40;77.20;;;;;;4974025;28;20568;-80
2024/03/20 10:59:21;;;;;;;9.48;4.95;;;23.60;73.80;;;;;;4967682;28;20057;-79
2024/03/20 11:02:15;;;;;;;10.90;5.63;;;23.30;74.20;;;;;;4982861;28;20034;-80
2024/03/20 11:04:43;;;;;;;11.45;5.72;;;23.00;74.10;;;;;;4953227;28;20043;-80
2024/03/20 11:07:45;;;;;;;9.38;4.95;;;22.60;74.30;;;;;;4972630;28;20034;-80
2024/03/20 11:10:25;;;;;;;11.65;5.22;;;22.50;74.10;;;;;;4977001;28;20551;-80
2024/03/20 11:12:53;;;;;;;7.47;5.82;;;22.30;73.70;;;;;;4962043;28;20516;-79
2024/03/20 11:15:19;;;;;;;11.20;6.65;;;22.30;74.50;;;;;;4960550;28;20037;-80
2024/03/20 11:17:56;;;;;;;10.05;6.40;;;22.40;74.00;;;;;;4961091;28;20073;-81
2024/03/20 11:21:02;;;;;;;8.88;5.90;;;22.80;75.00;;;;;;4968474;28;20397;-81
2024/03/20 11:23:47;;;;;;;9.15;4.90;;;23.10;72.80;;;;;;4973344;28;20066;-80
2024/03/20 11:26:12;;;;;;;9.20;5.60;;;23.80;73.70;;;;;;4975417;28;20033;-80
2024/03/20 11:28:40;;;;;;;7.65;4.88;;;24.60;71.80;;;;;;4973385;28;20023;-82
2024/03/20 11:31:10;;;;;;;8.25;4.38;;;25.50;69.70;;;;;;4975290;28;20061;-81
2024/03/20 11:33:36;;;;;;;11.20;4.32;;;26.00;67.70;;;;;;4974726;28;20398;-80
2024/03/20 11:36:04;;;;;;;6.18;3.75;;;26.40;64.10;;;;;;4981463;28;20533;-79
2024/03/20 11:38:38;;;;;;;10.23;4.97;;;27.30;63.10;;;;;;4958005;28;20034;-79
2024/03/20 11:41:16;;;;;;;6.30;4.03;;;27.40;62.30;;;;;;4967876;28;20391;-80
2024/03/20 11:43:43;;;;;;;8.10;3.90;;;27.60;62.10;;;;;;4966495;28;20027;-79
2024/03/20 11:46:22;;;;;;;7.80;4.05;;;28.00;62.10;;;;;;4959202;28;20184;-79
2024/03/20 11:48:48;;;;;;;8.48;5.05;;;28.40;63.00;;;;;;4970534;28;20081;-80
2024/03/20 11:51:15;;;;;;;5.80;3.83;;;28.30;59.80;;;;;;4968420;28;20015;-79
2024/03/20 11:53:41;;;;;;;7.47;4.22;;;28.40;60.00;;;;;;4953797;28;20779;-80
2024/03/20 11:56:09;;;;;;;8.80;3.80;;;28.40;60.90;;;;;;4956992;28;20034;-80
2024/03/20 11:58:35;;;;;;;5.47;2.53;;;28.20;59.90;;;;;;4970070;28;20239;-80
2024/03/20 12:01:05;;;;;;;4.78;2.28;;;27.50;57.30;;;;;;4970501;28;20045;-80
2024/03/20 12:03:35;;;;;;;5.75;2.95;;;26.60;58.90;;;;;;4970486;28;20086;-79
2024/03/20 12:06:12;;;;;;;8.13;3.60;;;25.50;59.60;;;;;;4982549;28;20038;-80
2024/03/20 12:08:41;;;;;;;6.80;3.53;;;24.90;61.10;;;;;;4962051;28;20046;-80
2024/03/20 12:11:34;;;;;;;5.38;3.28;;;24.30;62.20;;;;;;4955552;28;20102;-79
2024/03/20 12:14:00;;;;;;;8.55;3.40;;;23.60;62.30;;;;;;4971551;28;20027;-79
2024/03/20 12:16:26;;;;;;;7.30;4.13;;;23.30;63.80;;;;;;4989862;28;20031;-80
2024/03/20 12:18:52;;;;;;;7.40;3.58;;;23.10;65.20;;;;;;4974152;28;20034;-80
2024/03/20 12:21:22;;;;;;;7.60;4.30;;;23.10;65.30;;;;;;4974375;28;20854;-80
2024/03/20 12:23:49;;;;;;;9.63;5.90;;;22.90;65.30;;;;;;4963570;28;20038;-80
2024/03/20 12:26:17;;;;;;;8.43;4.35;;;22.80;64.70;;;;;;4955937;28;20042;-80
2024/03/20 12:28:46;;;;;;;10.05;6.13;;;23.30;67.00;;;;;;4954858;28;20027;-80
2024/03/20 12:31:15;;;;;;;8.02;4.72;;;23.30;65.10;;;;;;4963471;28;20057;-80
2024/03/20 12:33:43;;;;;;;15.15;7.80;;;23.90;64.40;;;;;;4976661;28;20422;-80
2024/03/20 12:36:09;;;;;;;14.07;7.05;;;23.80;64.60;;;;;;4966813;28;20137;-80